createdAt,value
2018-09-24T00:01:19.072Z,99.90
2018-09-24T00:03:47.520Z,99.90
2018-09-24T00:06:16.101Z,99.90
2018-09-24T00:08:44.580Z,99.90
2018-09-24T00:11:13.017Z,99.90
2018-09-24T00:13:41.459Z,99.90
2018-09-24T00:16:09.977Z,99.90
2018-09-24T00:18:38.408Z,99.90
2018-09-24T00:21:07.206Z,99.90
2018-09-24T00:23:35.788Z,99.90
2018-09-24T00:26:04.253Z,99.90
2018-09-24T00:28:32.726Z,99.90
2018-09-24T00:31:01.176Z,99.90
2018-09-24T00:33:29.623Z,99.90
2018-09-24T00:35:58.064Z,99.90
2018-09-24T00:38:26.593Z,99.90
2018-09-24T00:40:55.034Z,99.90
2018-09-24T00:43:23.540Z,99.90
2018-09-24T00:45:51.948Z,99.90
2018-09-24T00:48:20.531Z,99.90
2018-09-24T00:50:48.988Z,99.90
2018-09-24T00:53:17.523Z,99.90
2018-09-24T00:55:45.941Z,99.90
2018-09-24T00:58:14.384Z,99.90
2018-09-24T01:00:42.814Z,99.90
2018-09-24T01:03:11.238Z,99.90
2018-09-24T01:05:39.744Z,99.90
2018-09-24T01:08:08.317Z,99.90
2018-09-24T01:10:36.850Z,99.90
2018-09-24T01:13:05.444Z,99.90
2018-09-24T01:15:33.889Z,99.90
2018-09-24T01:18:02.338Z,99.90
2018-09-24T01:20:30.902Z,99.90
2018-09-24T01:22:59.338Z,99.90
2018-09-24T01:25:27.793Z,99.90
2018-09-24T01:27:56.317Z,99.90
2018-09-24T01:30:24.857Z,99.90
2018-09-24T01:32:53.444Z,99.90
2018-09-24T01:35:21.868Z,99.90
2018-09-24T01:37:50.878Z,99.90
2018-09-24T01:40:19.342Z,99.90
2018-09-24T01:42:47.944Z,99.90
2018-09-24T01:45:16.509Z,99.90
2018-09-24T01:47:45.001Z,99.90
2018-09-24T01:50:13.417Z,99.90
2018-09-24T01:52:41.888Z,99.90
2018-09-24T01:55:10.339Z,99.90
2018-09-24T01:57:38.854Z,99.90
2018-09-24T02:00:07.503Z,99.90
2018-09-24T02:02:36.110Z,99.90
2018-09-24T02:05:04.716Z,99.90
2018-09-24T02:07:33.266Z,99.90
2018-09-24T02:10:01.709Z,99.90
2018-09-24T02:12:30.166Z,99.90
2018-09-24T02:14:58.702Z,99.90
2018-09-24T02:17:27.172Z,99.90
2018-09-24T02:19:55.571Z,99.90
2018-09-24T02:22:28.825Z,99.90
2018-09-24T02:24:58.209Z,99.90
2018-09-24T02:27:26.917Z,99.90
2018-09-24T02:29:55.424Z,99.90
2018-09-24T02:32:23.919Z,99.90
2018-09-24T02:34:54.733Z,99.90
2018-09-24T02:37:23.246Z,99.90
2018-09-24T02:39:51.656Z,99.90
2018-09-24T02:42:20.087Z,99.90
2018-09-24T02:44:55.065Z,99.90
2018-09-24T02:47:23.743Z,99.90
2018-09-24T02:49:52.159Z,99.90
2018-09-24T02:52:20.597Z,99.90
2018-09-24T02:54:49.092Z,99.90
2018-09-24T02:57:17.530Z,99.90
2018-09-24T02:59:45.968Z,99.90
2018-09-24T03:02:14.426Z,99.90
2018-09-24T03:04:42.881Z,99.90
2018-09-24T03:07:11.324Z,99.90
2018-09-24T03:09:39.870Z,99.90
2018-09-24T03:12:08.326Z,99.90
2018-09-24T03:14:36.801Z,99.90
2018-09-24T03:17:05.224Z,99.90
2018-09-24T03:19:33.664Z,99.90
2018-09-24T03:22:02.145Z,99.90
2018-09-24T03:24:30.588Z,99.90
2018-09-24T03:26:59.049Z,99.90
2018-09-24T03:29:27.525Z,99.90
2018-09-24T03:31:55.949Z,99.90
2018-09-24T03:34:24.382Z,99.90
2018-09-24T03:36:52.826Z,99.90
2018-09-24T03:39:21.305Z,99.90
2018-09-24T03:41:49.826Z,99.90
2018-09-24T03:44:18.319Z,99.90
2018-09-24T03:46:46.790Z,99.90
2018-09-24T03:49:15.243Z,99.90
2018-09-24T03:51:43.750Z,99.90
2018-09-24T03:54:12.216Z,99.90
2018-09-24T03:56:40.667Z,99.90
2018-09-24T03:59:09.141Z,99.90
2018-09-24T04:01:37.593Z,99.90
2018-09-24T04:04:11.447Z,99.90
2018-09-24T04:06:45.231Z,99.90
2018-09-24T04:09:19.194Z,99.90
2018-09-24T04:11:53.195Z,99.90
2018-09-24T04:14:26.973Z,99.90
2018-09-24T04:17:00.760Z,99.90
2018-09-24T04:19:37.400Z,99.90
2018-09-24T04:22:11.292Z,99.90
2018-09-24T04:24:44.938Z,99.90
2018-09-24T04:27:18.898Z,99.90
2018-09-24T04:29:52.565Z,99.90
2018-09-24T04:32:26.349Z,99.90
2018-09-24T04:35:00.318Z,99.90
2018-09-24T04:37:34.093Z,99.90
2018-09-24T04:40:08.049Z,99.90
2018-09-24T04:42:42.089Z,99.90
2018-09-24T04:45:15.817Z,99.90
2018-09-24T04:47:49.499Z,99.90
2018-09-24T04:50:23.595Z,99.90
2018-09-24T04:53:04.471Z,99.90
2018-09-24T04:55:38.229Z,99.90
2018-09-24T04:58:12.186Z,99.90
2018-09-24T05:00:45.908Z,99.90
2018-09-24T05:03:19.751Z,99.90
2018-09-24T05:05:53.378Z,99.90
2018-09-24T05:08:26.970Z,99.90
2018-09-24T05:11:00.872Z,99.90
2018-09-24T05:13:34.649Z,99.90
2018-09-24T05:16:08.602Z,99.90
2018-09-24T05:18:42.349Z,99.90
2018-09-24T05:21:16.260Z,99.90
2018-09-24T05:23:49.956Z,99.90
2018-09-24T05:26:23.636Z,99.90
2018-09-24T05:28:57.569Z,99.90
2018-09-24T05:31:31.278Z,99.90
2018-09-24T05:34:05.050Z,99.90
2018-09-24T05:36:38.722Z,99.90
2018-09-24T05:39:13.917Z,99.90
2018-09-24T05:41:47.911Z,99.90
2018-09-24T05:44:21.601Z,99.90
2018-09-24T05:46:55.406Z,99.90
2018-09-24T05:49:29.180Z,99.90
2018-09-24T05:52:03.129Z,99.90
2018-09-24T05:54:36.896Z,99.90
2018-09-24T05:57:10.959Z,99.90
2018-09-24T05:59:44.681Z,99.90
2018-09-24T06:02:18.668Z,99.90
2018-09-24T06:04:52.461Z,99.90
2018-09-24T06:07:26.369Z,99.90
2018-09-24T06:10:00.200Z,99.90
2018-09-24T06:12:33.779Z,99.90
2018-09-24T06:15:07.433Z,99.90
2018-09-24T06:17:41.028Z,99.90
2018-09-24T06:20:14.860Z,99.90
2018-09-24T06:22:48.488Z,99.90
2018-09-24T06:25:22.397Z,99.90
2018-09-24T06:27:56.321Z,99.90
2018-09-24T06:30:30.193Z,99.90
2018-09-24T06:33:04.017Z,99.90
2018-09-24T06:35:37.690Z,99.90
2018-09-24T06:38:11.376Z,99.90
2018-09-24T06:40:45.085Z,99.90
2018-09-24T06:43:18.810Z,99.90
2018-09-24T06:45:52.445Z,99.90
2018-09-24T06:48:26.203Z,99.90
2018-09-24T06:50:59.961Z,99.90
2018-09-24T06:53:33.801Z,99.90
2018-09-24T06:56:07.610Z,99.90
2018-09-24T06:58:41.354Z,99.90
2018-09-24T07:01:15.173Z,99.90
2018-09-24T07:03:49.052Z,99.90
2018-09-24T07:06:22.817Z,99.90
2018-09-24T07:08:56.673Z,99.90
2018-09-24T07:11:30.427Z,99.90
2018-09-24T07:14:04.123Z,99.90
2018-09-24T07:16:38.061Z,99.90
2018-09-24T07:22:22.951Z,99.90
2018-09-24T07:24:56.791Z,99.90
2018-09-24T07:27:30.717Z,99.90
2018-09-24T07:30:04.523Z,99.90
2018-09-24T07:32:38.326Z,99.90
2018-09-24T07:35:12.222Z,99.90
2018-09-24T07:37:45.953Z,99.90
2018-09-24T07:40:19.862Z,99.90
2018-09-24T07:42:53.467Z,99.90
2018-09-24T07:45:27.266Z,99.90
2018-09-24T07:48:01.197Z,99.90
2018-09-24T07:50:35.082Z,99.90
2018-09-24T07:53:08.872Z,99.90
2018-09-24T07:55:42.693Z,99.90
2018-09-24T07:58:16.471Z,99.90
2018-09-24T08:00:50.307Z,95.70
2018-09-24T08:03:24.097Z,99.00
2018-09-24T08:05:57.961Z,96.60
2018-09-24T08:08:31.831Z,92.40
2018-09-24T08:11:05.488Z,93.80
2018-09-24T08:13:39.322Z,91.80
2018-09-24T08:16:13.137Z,88.70
2018-09-24T08:18:46.782Z,79.70
2018-09-24T08:21:20.437Z,74.90
2018-09-24T08:23:54.217Z,62.70
2018-09-24T08:26:28.053Z,74.80
2018-09-24T08:29:01.894Z,63.30
2018-09-24T08:31:35.698Z,74.20
2018-09-24T08:34:09.466Z,62.30
2018-09-24T08:36:43.243Z,55.30
2018-09-24T08:39:16.977Z,57.00
2018-09-24T08:41:50.885Z,61.50
2018-09-24T08:44:24.549Z,49.90
2018-09-24T08:46:58.240Z,47.30
2018-09-24T08:49:33.282Z,55.30
2018-09-24T08:52:06.898Z,49.80
2018-09-24T08:54:40.689Z,44.80
2018-09-24T08:57:14.626Z,46.00
2018-09-24T08:59:48.271Z,39.00
2018-09-24T09:02:21.985Z,40.90
2018-09-24T09:04:55.929Z,35.90
2018-09-24T09:07:29.809Z,39.70
2018-09-24T09:10:03.517Z,39.30
2018-09-24T09:12:37.432Z,35.30
2018-09-24T09:15:11.361Z,34.10
2018-09-24T09:17:45.131Z,33.70
2018-09-24T09:20:18.822Z,33.30
2018-09-24T09:22:52.628Z,35.10
2018-09-24T09:25:26.207Z,35.80
2018-09-24T09:28:00.065Z,36.10
2018-09-24T09:30:33.761Z,36.60
2018-09-24T09:33:07.576Z,36.30
2018-09-24T09:35:41.382Z,37.00
2018-09-24T09:38:15.063Z,38.00
2018-09-24T09:40:49.019Z,38.00
2018-09-24T09:43:22.916Z,38.20
2018-09-24T09:45:56.765Z,36.90
2018-09-24T09:48:31.944Z,35.40
2018-09-24T09:51:05.706Z,35.30
2018-09-24T09:53:39.716Z,36.40
2018-09-24T09:56:13.461Z,36.90
2018-09-24T09:58:47.248Z,38.50
2018-09-24T10:01:21.129Z,37.60
2018-09-24T10:03:54.882Z,36.80
2018-09-24T10:06:28.496Z,37.40
2018-09-24T10:09:02.390Z,36.00
2018-09-24T10:11:36.238Z,36.30
2018-09-24T10:14:09.959Z,36.90
2018-09-24T10:16:43.648Z,36.20
2018-09-24T10:19:17.594Z,34.50
2018-09-24T10:21:52.936Z,33.80
2018-09-24T10:24:26.721Z,35.20
2018-09-24T10:27:00.409Z,35.80
2018-09-24T10:29:34.262Z,35.80
2018-09-24T10:35:12.785Z,37.40
2018-09-24T10:37:46.461Z,39.10
2018-09-24T10:40:20.414Z,40.10
2018-09-24T10:42:54.299Z,40.50
2018-09-24T10:45:28.083Z,41.20
2018-09-24T10:48:01.895Z,41.80
2018-09-24T10:50:35.792Z,42.20
2018-09-24T10:53:09.749Z,42.80
2018-09-24T10:55:43.633Z,41.90
2018-09-24T10:58:17.557Z,41.60
2018-09-24T11:00:51.437Z,42.00
2018-09-24T11:03:25.408Z,43.10
2018-09-24T11:05:59.240Z,44.40
2018-09-24T11:08:33.007Z,45.10
2018-09-24T11:11:06.887Z,46.40
2018-09-24T11:13:40.779Z,47.40
2018-09-24T11:16:14.732Z,48.20
2018-09-24T11:18:48.489Z,48.70
2018-09-24T11:21:22.279Z,48.70
2018-09-24T11:23:56.597Z,48.30
2018-09-24T11:29:04.343Z,47.20
2018-09-24T11:31:38.263Z,46.90
2018-09-24T11:34:12.184Z,46.00
2018-09-24T11:36:46.013Z,46.00
2018-09-24T11:39:19.886Z,45.50
2018-09-24T11:41:53.693Z,45.60
2018-09-24T11:44:27.628Z,45.50
2018-09-24T11:47:01.508Z,44.90
2018-09-24T11:49:42.123Z,44.30
2018-09-24T11:52:15.840Z,44.10
2018-09-24T11:54:49.492Z,45.00
2018-09-24T11:57:23.364Z,44.80
2018-09-24T11:59:57.150Z,45.40
2018-09-24T12:02:31.166Z,45.60
2018-09-24T12:05:05.072Z,45.40
2018-09-24T12:07:38.950Z,45.70
2018-09-24T12:10:12.891Z,46.10
2018-09-24T12:12:46.537Z,46.20
2018-09-24T12:15:20.374Z,47.30
2018-09-24T12:17:54.038Z,46.50
2018-09-24T12:20:27.897Z,46.30
2018-09-24T12:23:01.676Z,45.70
2018-09-24T12:25:35.508Z,45.60
2018-09-24T12:28:09.329Z,44.90
2018-09-24T12:30:43.174Z,44.30
2018-09-24T12:33:16.823Z,43.80
2018-09-24T12:35:50.581Z,43.20
2018-09-24T12:38:24.319Z,42.90
2018-09-24T12:40:58.096Z,43.00
2018-09-24T12:43:31.770Z,43.00
2018-09-24T12:46:05.560Z,43.30
2018-09-24T12:48:39.306Z,43.40
2018-09-24T12:51:13.171Z,45.20
2018-09-24T12:53:46.994Z,47.50
2018-09-24T12:56:20.941Z,52.20
2018-09-24T12:58:54.724Z,54.10
2018-09-24T13:01:28.715Z,57.40
2018-09-24T13:04:02.538Z,59.70
2018-09-24T13:06:36.476Z,61.70
2018-09-24T13:09:12.082Z,62.00
2018-09-24T13:11:46.272Z,63.50
2018-09-24T13:14:20.112Z,63.00
2018-09-24T13:16:54.177Z,62.50
2018-09-24T13:19:28.157Z,62.20
2018-09-24T13:22:02.222Z,61.30
2018-09-24T13:24:36.063Z,59.80
2018-09-24T13:27:10.063Z,59.40
2018-09-24T13:29:43.752Z,57.00
2018-09-24T13:32:17.634Z,57.20
2018-09-24T13:34:51.384Z,57.00
2018-09-24T13:37:25.304Z,56.30
2018-09-24T13:39:59.150Z,55.90
2018-09-24T13:42:33.037Z,54.50
2018-09-24T13:45:06.872Z,53.90
2018-09-24T13:47:40.873Z,52.70
2018-09-24T13:50:14.798Z,51.60
2018-09-24T13:52:48.610Z,50.50
2018-09-24T13:55:22.557Z,51.20
2018-09-24T13:57:56.434Z,51.00
2018-09-24T14:00:31.144Z,50.80
2018-09-24T14:03:05.012Z,50.20
2018-09-24T14:05:38.945Z,49.90
2018-09-24T14:08:12.902Z,49.60
2018-09-24T14:10:46.808Z,49.30
2018-09-24T14:13:20.730Z,49.60
2018-09-24T14:15:54.619Z,49.70
2018-09-24T14:18:28.574Z,50.20
2018-09-24T14:21:04.480Z,50.20
2018-09-24T14:23:38.397Z,50.30
2018-09-24T14:26:12.477Z,50.50
2018-09-24T14:28:46.381Z,50.50
2018-09-24T14:31:20.388Z,50.40
2018-09-24T14:33:54.284Z,50.20
2018-09-24T14:36:28.248Z,50.20
2018-09-24T14:39:02.171Z,50.20
2018-09-24T14:41:36.075Z,50.70
2018-09-24T14:44:10.163Z,50.40
2018-09-24T14:46:44.042Z,50.00
2018-09-24T14:49:17.770Z,50.20
2018-09-24T14:51:51.565Z,50.80
2018-09-24T14:54:25.589Z,50.80
2018-09-24T14:56:59.410Z,50.20
2018-09-24T14:59:33.349Z,50.90
2018-09-24T15:02:07.142Z,49.80
2018-09-24T15:04:41.168Z,49.80
2018-09-24T15:07:14.920Z,50.10
2018-09-24T15:09:48.985Z,49.80
2018-09-24T15:12:22.844Z,50.10
2018-09-24T15:14:56.825Z,50.10
2018-09-24T15:17:30.805Z,50.00
2018-09-24T15:20:04.766Z,49.60
2018-09-24T15:22:38.666Z,49.80
2018-09-24T15:25:12.649Z,49.80
2018-09-24T15:27:46.598Z,50.00
2018-09-24T15:30:20.447Z,50.40
2018-09-24T15:32:54.292Z,50.50
2018-09-24T15:35:28.123Z,50.60
2018-09-24T15:38:02.047Z,51.20
2018-09-24T15:40:35.968Z,51.50
2018-09-24T15:43:10.112Z,51.60
2018-09-24T15:45:43.953Z,51.50
2018-09-24T15:48:17.834Z,51.60
2018-09-24T15:50:51.736Z,52.00
2018-09-24T15:53:25.594Z,52.50
2018-09-24T15:55:59.544Z,52.60
2018-09-24T15:58:33.452Z,52.10
2018-09-24T16:01:07.383Z,51.70
2018-09-24T16:03:41.158Z,51.50
2018-09-24T16:06:15.178Z,49.30
2018-09-24T16:08:49.147Z,47.30
2018-09-24T16:11:23.357Z,48.00
2018-09-24T16:13:57.310Z,47.70
2018-09-24T16:16:31.268Z,48.60
2018-09-24T16:19:05.056Z,49.40
2018-09-24T16:21:39.027Z,50.00
2018-09-24T16:24:12.830Z,50.10
2018-09-24T16:26:46.601Z,50.90
2018-09-24T16:29:20.321Z,50.70
2018-09-24T16:31:54.395Z,50.70
2018-09-24T16:34:28.306Z,50.90
2018-09-24T16:37:02.175Z,51.20
2018-09-24T16:39:36.233Z,51.60
2018-09-24T16:42:10.095Z,52.20
2018-09-24T16:44:44.013Z,52.70
2018-09-24T16:47:17.861Z,52.90
2018-09-24T16:49:51.717Z,53.50
2018-09-24T16:52:25.723Z,53.80
2018-09-24T16:54:59.425Z,54.00
2018-09-24T16:57:33.329Z,54.70
2018-09-24T17:00:07.274Z,55.60
2018-09-24T17:02:41.245Z,56.00
2018-09-24T17:05:15.195Z,56.30
2018-09-24T17:07:49.003Z,56.70
2018-09-24T17:10:22.841Z,57.50
2018-09-24T17:12:56.680Z,58.10
2018-09-24T17:15:30.494Z,59.00
2018-09-24T17:18:04.286Z,60.30
2018-09-24T17:20:38.178Z,62.20
2018-09-24T17:23:11.981Z,64.00
2018-09-24T17:25:45.801Z,64.30
2018-09-24T17:28:19.701Z,65.00
2018-09-24T17:30:53.599Z,65.60
2018-09-24T17:33:27.421Z,66.50
2018-09-24T17:36:01.317Z,66.20
2018-09-24T17:38:35.075Z,66.20
2018-09-24T17:41:09.066Z,64.80
2018-09-24T17:43:42.959Z,65.00
2018-09-24T17:46:16.938Z,65.80
2018-09-24T17:48:51.268Z,65.90
2018-09-24T17:51:25.248Z,65.80
2018-09-24T17:53:59.321Z,66.00
2018-09-24T17:56:33.118Z,66.80
2018-09-24T17:59:07.184Z,66.80
2018-09-24T18:01:40.995Z,66.80
2018-09-24T18:04:15.016Z,68.00
2018-09-24T18:06:49.021Z,69.40
2018-09-24T18:09:22.826Z,70.50
2018-09-24T18:11:56.848Z,70.90
2018-09-24T18:14:30.810Z,71.30
2018-09-24T18:17:05.065Z,72.10
2018-09-24T18:26:48.113Z,72.30
2018-09-24T18:29:24.944Z,74.30
2018-09-24T18:32:00.101Z,75.20
2018-09-24T18:34:34.092Z,76.70
2018-09-24T18:37:08.316Z,76.30
2018-09-24T18:39:42.298Z,76.20
2018-09-24T18:42:17.169Z,76.70
2018-09-24T18:44:51.315Z,76.80
2018-09-24T18:47:27.551Z,77.20
2018-09-24T18:50:15.988Z,77.20
2018-09-24T18:52:50.217Z,78.00
2018-09-24T18:55:24.679Z,78.10
2018-09-24T18:57:58.706Z,78.00
2018-09-24T19:00:32.852Z,78.30
2018-09-24T19:03:06.788Z,79.10
2018-09-24T19:05:40.712Z,79.10
2018-09-24T19:08:14.751Z,79.40
2018-09-24T19:13:29.548Z,79.90
2018-09-24T19:16:03.709Z,80.50
2018-09-24T19:18:37.775Z,81.10
2018-09-24T19:21:11.621Z,81.20
2018-09-24T19:23:45.824Z,81.20
2018-09-24T19:26:19.715Z,81.50
2018-09-24T19:28:53.762Z,81.30
2018-09-24T19:31:27.949Z,81.80
2018-09-24T19:34:01.708Z,82.20
2018-09-24T19:36:35.773Z,83.00
2018-09-24T19:39:11.287Z,83.70
2018-09-24T19:41:45.521Z,84.50
2018-09-24T19:44:19.357Z,85.40
2018-09-24T19:46:53.099Z,86.90
2018-09-24T19:49:27.713Z,87.90
2018-09-24T19:52:02.614Z,89.50
2018-09-24T19:54:37.260Z,90.30
2018-09-24T19:57:12.335Z,90.70
2018-09-24T19:59:46.850Z,91.20
2018-09-24T20:02:21.087Z,92.20
2018-09-24T20:04:55.316Z,92.80
2018-09-24T20:07:30.947Z,93.10
2018-09-24T20:10:05.448Z,94.10
2018-09-24T20:12:40.175Z,94.60
2018-09-24T20:15:14.590Z,95.40
2018-09-24T20:17:49.263Z,95.70
2018-09-24T20:20:23.583Z,96.10
2018-09-24T20:22:58.862Z,96.40
2018-09-24T20:25:33.274Z,96.80
2018-09-24T20:28:07.454Z,97.90
2018-09-24T20:30:41.824Z,97.90
2018-09-24T20:33:16.580Z,98.30
2018-09-24T20:35:50.934Z,98.40
2018-09-24T20:38:25.236Z,98.80
2018-09-24T20:40:59.719Z,99.00
2018-09-24T20:43:33.569Z,99.60
2018-09-24T20:46:07.549Z,99.90
2018-09-24T20:48:41.528Z,99.90
2018-09-24T20:51:15.218Z,99.90
2018-09-24T20:53:49.002Z,99.90
2018-09-24T20:56:22.739Z,99.90
2018-09-24T20:58:56.594Z,99.90
2018-09-24T21:01:30.571Z,99.90
2018-09-24T21:04:04.368Z,99.90
2018-09-24T21:06:38.135Z,99.90
2018-09-24T21:09:13.961Z,99.90
2018-09-24T21:11:47.805Z,99.90
2018-09-24T21:14:21.716Z,99.90
2018-09-24T21:16:55.472Z,99.90
2018-09-24T21:19:29.176Z,99.90
2018-09-24T21:22:02.964Z,99.90
2018-09-24T21:24:38.608Z,99.90
2018-09-24T21:27:12.320Z,99.90
2018-09-24T21:29:46.115Z,99.90
2018-09-24T21:32:19.973Z,99.90
2018-09-24T21:34:53.855Z,99.90
2018-09-24T21:37:27.833Z,99.90
2018-09-24T21:40:01.528Z,99.90
2018-09-24T21:42:35.537Z,99.90
2018-09-24T21:45:09.355Z,99.90
2018-09-24T21:47:43.279Z,99.90
2018-09-24T21:50:17.199Z,99.90
2018-09-24T21:52:51.067Z,99.90
2018-09-24T21:55:24.817Z,99.90
2018-09-24T21:57:58.580Z,99.90
2018-09-24T22:00:32.580Z,99.90
2018-09-24T22:03:06.398Z,99.90
2018-09-24T22:05:40.223Z,99.90
2018-09-24T22:08:13.987Z,99.90
2018-09-24T22:10:47.979Z,99.90
2018-09-24T22:13:21.820Z,99.90
2018-09-24T22:15:55.648Z,99.90
2018-09-24T22:18:29.534Z,99.90
2018-09-24T22:21:03.160Z,99.90
2018-09-24T22:23:36.994Z,99.90
2018-09-24T22:26:10.761Z,99.90
2018-09-24T22:28:44.361Z,99.90
2018-09-24T22:31:18.246Z,99.90
2018-09-24T22:33:52.228Z,99.90
2018-09-24T22:36:25.970Z,99.90
2018-09-24T22:38:59.692Z,99.90
2018-09-24T22:41:33.469Z,99.90
2018-09-24T22:44:07.212Z,99.90
2018-09-24T22:46:41.026Z,99.90
2018-09-24T22:49:14.786Z,99.90
2018-09-24T22:51:48.658Z,99.90
2018-09-24T22:54:22.555Z,99.90
2018-09-24T22:56:56.183Z,99.90
2018-09-24T22:59:29.957Z,99.90
2018-09-24T23:02:03.725Z,99.90
2018-09-24T23:04:37.399Z,99.90
2018-09-24T23:07:11.233Z,99.90
2018-09-24T23:09:45.006Z,99.90
2018-09-24T23:12:18.845Z,99.90
2018-09-24T23:14:52.608Z,99.90
2018-09-24T23:17:26.440Z,99.90
2018-09-24T23:20:00.187Z,99.90
2018-09-24T23:22:34.084Z,99.90
2018-09-24T23:25:07.889Z,99.90
2018-09-24T23:27:41.818Z,99.90
2018-09-24T23:30:15.690Z,99.90
2018-09-24T23:32:49.449Z,99.90
2018-09-24T23:35:23.277Z,99.90
2018-09-24T23:37:56.941Z,99.90
2018-09-24T23:40:30.722Z,99.90
2018-09-24T23:43:04.668Z,99.90
2018-09-24T23:45:38.500Z,99.90
2018-09-24T23:48:12.098Z,99.90
2018-09-24T23:50:45.945Z,99.90
2018-09-24T23:53:19.869Z,99.90
2018-09-24T23:55:53.825Z,99.90
2018-09-24T23:58:27.825Z,99.90
